ADDS METAR Data INFO
IDs: Format: Raw Decoded Include TAF

Data at: 0017 UTC 17 Dec 2017

METAR for:KX60 (Williston Muni, FL, US)
Text:KX60 162355Z AUTO 00000KT 10SM CLR 14/09 A3026 RMK A01
Temperature: 14.0°C ( 57°F)
Dewpoint: 9.0°C ( 48°F) [RH = 72%]
Pressure (altimeter):30.26 inches Hg (1024.8 mb)
Winds:calm
Visibility:10 or more sm (16+ km)
Ceiling:at least 12,000 feet AGL
Clouds:sky clear below 12,000 feet AGL
QC Flag:automated observation with no human augmentation